Time;durP1;ratioP1;P1;durP2;ratioP2;P2;SDS_P1;SDS_P2;PMS_P1;PMS_P2;Temp;Humidity;BMP_temperature;BMP_pressure;BME280_temperature;BME280_humidity;BME280_pressure;Samples;Min_cycle;Max_cycle;Signal;HPM_P1;HPM_P2
2023/07/14 00:01:44;;;;;;;13.02;9.43;;;;;;;17.36;90.15;101533.41;3532150;40;20136;-63
2023/07/14 00:04:15;;;;;;;10.52;8.10;;;;;;;17.36;90.77;101527.13;3531439;40;20062;-63
2023/07/14 00:06:44;;;;;;;9.27;8.38;;;;;;;17.36;91.10;101521.69;3535327;40;20393;-65
2023/07/14 00:09:30;;;;;;;11.02;8.77;;;;;;;17.32;89.30;101525.66;3528887;40;20072;-63
2023/07/14 00:11:56;;;;;;;10.77;8.57;;;;;;;17.32;90.24;101526.50;3534469;40;20336;-64
2023/07/14 00:14:22;;;;;;;8.93;8.05;;;;;;;17.30;89.43;101522.16;3531095;40;20055;-63
2023/07/14 00:16:48;;;;;;;11.18;8.30;;;;;;;17.29;89.92;101524.03;3531667;40;20133;-62
2023/07/14 00:19:17;;;;;;;10.52;8.10;;;;;;;17.29;89.66;101515.00;3528159;40;20523;-63
2023/07/14 00:21:45;;;;;;;9.32;7.55;;;;;;;17.09;89.86;101492.97;3529503;40;20062;-63
2023/07/14 00:24:16;;;;;;;8.63;7.78;;;;;;;17.25;89.87;101517.09;3531806;40;20062;-63
2023/07/14 00:26:48;;;;;;;9.43;7.60;;;;;;;17.25;90.01;101508.94;3533228;40;20436;-63
2023/07/14 00:29:34;;;;;;;10.40;7.85;;;;;;;17.20;89.73;101497.59;3527421;40;20076;-63
2023/07/14 00:32:02;;;;;;;9.13;7.68;;;;;;;17.25;89.79;101510.78;3532135;40;20054;-63
2023/07/14 00:34:29;;;;;;;10.18;8.02;;;;;;;17.26;90.09;101518.84;3532798;40;20098;-63
2023/07/14 00:36:55;;;;;;;8.30;7.50;;;;;;;17.25;91.21;101513.50;3530150;40;20058;-63
2023/07/14 00:39:20;;;;;;;10.18;7.70;;;;;;;17.24;90.32;101507.22;3533455;40;20392;-63
2023/07/14 00:41:47;;;;;;;9.02;8.13;;;;;;;17.21;90.04;101507.44;3531758;40;20453;-62
2023/07/14 00:44:15;;;;;;;9.32;8.20;;;;;;;17.25;89.96;101508.94;3529647;40;20059;-63
2023/07/14 00:46:45;;;;;;;9.63;8.25;;;;;;;17.26;90.93;101505.25;3529930;40;20384;-63
2023/07/14 00:49:25;;;;;;;9.00;8.15;;;;;;;17.17;90.30;101481.53;3531061;40;20062;-63
2023/07/14 00:51:53;;;;;;;8.73;7.85;;;;;;;17.26;90.58;101501.66;3529770;40;20064;-62
2023/07/14 00:54:29;;;;;;;9.52;8.52;;;;;;;17.25;90.32;101505.34;3532338;40;20058;-63
2023/07/14 00:56:56;;;;;;;10.23;8.75;;;;;;;17.25;90.01;101500.78;3533073;40;20058;-63
2023/07/14 00:59:34;;;;;;;10.55;8.38;;;;;;;17.25;89.86;101491.75;3528593;40;20058;-63
2023/07/14 01:02:19;;;;;;;10.02;8.38;;;;;;;17.25;89.79;101498.06;3531378;40;20122;-63
2023/07/14 01:04:58;;;;;;;10.85;8.45;;;;;;;17.24;89.78;101501.78;3532772;40;20061;-63
2023/07/14 01:07:38;;;;;;;11.18;8.77;;;;;;;17.25;89.45;101497.19;3532415;40;20065;-62
2023/07/14 01:10:08;;;;;;;9.98;8.95;;;;;;;17.27;90.32;101504.25;3529361;40;20094;-63
2023/07/14 01:12:40;;;;;;;10.30;9.15;;;;;;;17.26;90.30;101498.94;3526478;40;20128;-63
2023/07/14 01:15:07;;;;;;;9.55;8.57;;;;;;;17.30;90.16;101503.16;3530711;40;20678;-62
2023/07/14 01:17:37;;;;;;;10.20;8.65;;;;;;;17.31;90.82;101491.28;3533354;40;20066;-63
2023/07/14 01:20:11;;;;;;;10.10;8.65;;;;;;;17.33;90.18;101489.31;3531664;40;20136;-63
2023/07/14 01:22:46;;;;;;;9.35;8.38;;;;;;;17.31;90.03;101486.72;3531076;40;20102;-62
2023/07/14 01:25:36;;;;;;;8.98;8.05;;;;;;;17.36;89.07;101489.06;3532696;40;20516;-63
2023/07/14 01:28:12;;;;;;;9.82;8.57;;;;;;;17.29;89.43;101469.69;3530595;40;20089;-63
2023/07/14 01:30:40;;;;;;;9.90;9.00;;;;;;;17.27;89.78;101466.22;3533745;40;20332;-62
2023/07/14 01:33:15;;;;;;;9.73;8.77;;;;;;;17.39;89.84;101486.13;3534234;40;20070;-63
2023/07/14 01:35:57;;;;;;;11.52;9.13;;;;;;;17.37;89.26;101486.22;3532714;40;20065;-63
2023/07/14 01:38:23;;;;;;;12.00;9.30;;;;;;;17.39;89.61;101477.97;3532269;40;20390;-62
2023/07/14 01:40:50;;;;;;;9.70;8.75;;;;;;;17.45;89.47;101484.75;3529774;40;20062;-62
2023/07/14 01:43:17;;;;;;;9.85;8.85;;;;;;;17.44;89.23;101477.56;3535419;40;20089;-63
2023/07/14 01:46:00;;;;;;;11.80;8.85;;;;;;;17.42;87.98;101476.84;3532514;40;20069;-63
2023/07/14 01:48:48;;;;;;;12.27;9.05;;;;;;;17.40;88.16;101476.97;3531335;40;20051;-63
2023/07/14 01:51:16;;;;;;;11.63;8.35;;;;;;;17.36;87.92;101473.63;3530610;40;20332;-62
2023/07/14 01:54:00;;;;;;;8.93;7.80;;;;;;;17.20;87.92;101450.53;3532023;40;20058;-63
2023/07/14 01:56:29;;;;;;;11.00;8.30;;;;;;;17.35;87.33;101476.47;3530121;40;20389;-62
2023/07/14 01:59:15;;;;;;;10.57;8.85;;;;;;;17.31;87.12;101470.41;3532499;40;20053;-63
2023/07/14 02:01:46;;;;;;;9.77;8.43;;;;;;;17.21;88.06;101453.13;3527996;40;20066;-62
2023/07/14 02:04:25;;;;;;;11.32;8.98;;;;;;;17.29;87.16;101472.41;3527465;40;22029;-63
2023/07/14 02:06:52;;;;;;;8.65;7.85;;;;;;;17.29;87.63;101469.69;3533031;40;20409;-63
2023/07/14 02:09:23;;;;;;;11.25;9.23;;;;;;;17.28;87.13;101475.22;3533893;40;20050;-63
2023/07/14 02:11:55;;;;;;;9.88;8.85;;;;;;;17.26;87.50;101467.22;3532219;40;20397;-61
2023/07/14 02:14:24;;;;;;;9.57;8.68;;;;;;;17.22;87.26;101463.00;3534817;40;20061;-63
2023/07/14 02:16:51;;;;;;;11.82;8.80;;;;;;;17.17;87.50;101470.66;3533785;40;20054;-63
2023/07/14 02:19:25;;;;;;;9.05;8.10;;;;;;;17.15;87.61;101462.59;3531720;40;20287;-64
2023/07/14 02:21:56;;;;;;;9.57;8.68;;;;;;;17.11;87.19;101460.28;3533861;40;20061;-63
2023/07/14 02:24:27;;;;;;;9.73;8.88;;;;;;;17.10;87.37;101451.25;3532613;40;20129;-63
2023/07/14 02:27:02;;;;;;;9.65;8.63;;;;;;;17.06;87.99;101459.75;3530385;40;20057;-63
2023/07/14 02:29:30;;;;;;;9.88;8.77;;;;;;;17.03;87.47;101460.91;3530098;40;20043;-63
2023/07/14 02:32:29;;;;;;;9.82;8.82;;;;;;;16.97;87.23;101460.47;3530096;40;20371;-63
2023/07/14 02:35:23;;;;;;;12.30;9.30;;;;;;;16.92;87.80;101456.28;3531307;40;20054;-64
2023/07/14 02:38:03;;;;;;;11.50;9.32;;;;;;;16.88;87.29;101456.66;3529912;40;20059;-63
2023/07/14 02:41:21;;;;;;;9.25;8.30;;;;;;;16.80;87.45;101449.09;3529476;40;20057;-62
2023/07/14 02:44:03;;;;;;;11.70;9.25;;;;;;;16.79;87.41;101457.38;3528304;40;20321;-61
2023/07/14 02:46:34;;;;;;;11.93;9.10;;;;;;;16.77;88.36;101460.19;3531527;40;20054;-63
2023/07/14 02:49:00;;;;;;;11.65;9.35;;;;;;;16.75;88.72;101462.19;3524552;40;20068;-62
2023/07/14 02:51:26;;;;;;;10.60;9.13;;;;;;;16.72;88.76;101456.97;3531244;40;20545;-62
2023/07/14 02:53:52;;;;;;;10.50;9.20;;;;;;;16.76;87.86;101458.47;3533833;40;20381;-62
2023/07/14 02:56:19;;;;;;;9.73;8.73;;;;;;;16.78;88.67;101452.91;3532855;40;20110;-61
2023/07/14 02:58:49;;;;;;;9.43;8.52;;;;;;;16.75;88.12;101445.91;3529703;40;20085;-62
2023/07/14 03:01:18;;;;;;;10.75;8.80;;;;;;;16.76;88.75;101450.34;3531508;40;20074;-61
2023/07/14 03:03:48;;;;;;;14.20;9.20;;;;;;;16.75;88.93;101448.59;3531360;40;20075;-62
2023/07/14 03:06:18;;;;;;;10.07;9.15;;;;;;;16.77;88.67;101454.75;3531947;40;20479;-62
2023/07/14 03:08:44;;;;;;;9.55;8.55;;;;;;;16.78;89.12;101461.06;3533010;40;20058;-62
2023/07/14 03:11:10;;;;;;;9.93;8.93;;;;;;;16.79;88.81;101451.94;3532050;40;20064;-62
2023/07/14 03:13:36;;;;;;;11.90;8.48;;;;;;;16.77;88.77;101452.03;3537303;40;20060;-62
2023/07/14 03:16:03;;;;;;;9.95;8.43;;;;;;;16.78;88.32;101445.66;3529873;40;20405;-62
2023/07/14 03:18:30;;;;;;;9.18;8.27;;;;;;;16.83;89.23;101448.00;3530141;40;20042;-62
2023/07/14 03:20:58;;;;;;;9.75;8.45;;;;;;;16.83;87.34;101446.13;3529263;40;20440;-63
2023/07/14 03:23:24;;;;;;;9.38;7.95;;;;;;;16.73;88.34;101419.81;3531792;40;20342;-61
2023/07/14 03:25:58;;;;;;;7.97;7.18;;;;;;;16.84;87.32;101445.19;3531530;40;20070;-62
2023/07/14 03:28:23;;;;;;;9.50;8.00;;;;;;;16.87;87.46;101444.94;3533381;40;20061;-62
2023/07/14 03:30:49;;;;;;;8.23;7.40;;;;;;;16.83;87.64;101435.28;3530232;40;20054;-62
2023/07/14 03:33:15;;;;;;;7.78;6.55;;;;;;;16.88;87.59;101435.78;3529650;40;20305;-62
2023/07/14 03:35:41;;;;;;;7.28;6.53;;;;;;;16.91;87.68;101434.69;3530724;40;20062;-62
2023/07/14 03:38:07;;;;;;;7.43;6.53;;;;;;;16.90;86.79;101432.94;3527574;40;20148;-62
2023/07/14 03:40:33;;;;;;;7.38;6.68;;;;;;;16.89;86.81;101437.50;3534020;40;20388;-62
2023/07/14 03:43:00;;;;;;;6.93;6.20;;;;;;;16.89;86.71;101440.22;3529101;40;20062;-62
2023/07/14 03:45:26;;;;;;;6.80;6.10;;;;;;;16.90;86.94;101428.41;3530355;40;20102;-63
2023/07/14 03:47:51;;;;;;;7.25;5.85;;;;;;;16.88;85.34;101427.66;3529909;40;20459;-62
2023/07/14 03:50:17;;;;;;;7.15;5.78;;;;;;;16.79;85.53;101409.38;3525178;40;20306;-62
2023/07/14 03:52:43;;;;;;;9.07;6.15;;;;;;;16.83;85.87;101424.41;3534036;40;20302;-61
2023/07/14 03:55:11;;;;;;;8.65;6.38;;;;;;;16.82;86.32;101422.69;3527892;40;20279;-62
2023/07/14 03:57:38;;;;;;;6.40;5.57;;;;;;;16.86;85.37;101420.59;3528538;40;20066;-62
2023/07/14 04:00:13;;;;;;;8.50;6.22;;;;;;;16.85;85.54;101425.16;3530405;40;20066;-62
2023/07/14 04:02:40;;;;;;;6.32;5.53;;;;;;;16.86;85.85;101421.47;3529817;40;20140;-62
2023/07/14 04:05:08;;;;;;;6.13;5.15;;;;;;;16.74;85.65;101403.38;3527969;40;21680;-62
2023/07/14 04:07:39;;;;;;;6.45;5.78;;;;;;;16.83;85.76;101421.69;3527615;40;20064;-62
2023/07/14 04:10:08;;;;;;;6.18;5.47;;;;;;;16.85;86.15;101419.75;3529475;40;20132;-62
2023/07/14 04:12:35;;;;;;;6.30;5.15;;;;;;;16.83;85.96;101418.13;3529445;40;20051;-62
2023/07/14 04:15:01;;;;;;;6.20;4.90;;;;;;;16.85;85.69;101430.59;3528320;40;20121;-62
2023/07/14 04:17:30;;;;;;;7.63;5.45;;;;;;;16.85;84.99;101424.31;3529380;40;20050;-62
2023/07/14 04:19:56;;;;;;;7.65;5.03;;;;;;;16.71;85.03;101395.47;3527897;40;20390;-63
2023/07/14 04:22:22;;;;;;;7.07;5.15;;;;;;;16.84;85.15;101415.31;3529965;40;20405;-63
2023/07/14 04:24:48;;;;;;;5.78;4.90;;;;;;;16.86;86.07;101407.03;3529703;40;20249;-63
2023/07/14 04:27:15;;;;;;;6.95;5.07;;;;;;;16.81;85.17;101411.94;3528833;40;20356;-63
2023/07/14 04:29:42;;;;;;;5.78;4.90;;;;;;;16.87;84.08;101414.19;3528841;40;20061;-61
2023/07/14 04:32:08;;;;;;;5.10;4.55;;;;;;;16.56;84.97;101366.84;3526672;40;20413;-61
2023/07/14 04:34:36;;;;;;;5.80;4.90;;;;;;;16.86;84.85;101410.59;3531249;40;20058;-60
2023/07/14 04:37:03;;;;;;;5.72;4.40;;;;;;;16.84;84.24;101415.31;3531417;40;20401;-61
2023/07/14 04:39:30;;;;;;;7.07;5.10;;;;;;;16.83;84.98;101416.28;3529189;40;20220;-61
2023/07/14 04:41:56;;;;;;;5.47;4.75;;;;;;;16.82;84.82;101416.41;3528319;40;20144;-61
2023/07/14 04:44:23;;;;;;;5.78;4.47;;;;;;;16.79;84.47;101414.78;3529708;40;20066;-62
2023/07/14 04:46:50;;;;;;;6.43;4.70;;;;;;;16.76;84.51;101411.47;3530355;40;20054;-61
2023/07/14 04:49:16;;;;;;;7.13;4.43;;;;;;;16.78;84.28;101418.50;3532322;40;20057;-62
2023/07/14 04:51:43;;;;;;;6.55;4.70;;;;;;;16.75;83.66;101418.75;3529841;40;20102;-62
2023/07/14 04:54:10;;;;;;;7.15;4.72;;;;;;;16.75;84.38;101421.47;3531869;40;20563;-62
2023/07/14 04:56:39;;;;;;;8.10;4.85;;;;;;;16.73;83.47;101425.25;3531970;40;20057;-62
2023/07/14 04:59:07;;;;;;;4.85;4.30;;;;;;;16.71;83.44;101433.50;3531278;40;20067;-62
2023/07/14 05:01:33;;;;;;;9.13;4.90;;;;;;;16.67;83.98;101421.16;3529778;40;20065;-62
2023/07/14 05:03:59;;;;;;;6.47;4.65;;;;;;;16.66;84.25;101420.28;3531472;40;20053;-63
2023/07/14 05:06:25;;;;;;;5.05;4.30;;;;;;;16.67;84.23;101411.16;3531632;40;20066;-62
2023/07/14 05:08:51;;;;;;;5.65;4.35;;;;;;;16.77;83.56;101418.59;3534109;40;20062;-64
2023/07/14 05:11:16;;;;;;;7.50;4.82;;;;;;;16.79;83.86;101419.38;3536690;40;20070;-62
2023/07/14 05:13:43;;;;;;;11.02;4.93;;;;;;;16.80;83.28;101415.66;3535485;40;20097;-62
2023/07/14 05:16:08;;;;;;;6.18;4.80;;;;;;;16.79;83.39;101413.94;3530767;40;20739;-64
2023/07/14 05:18:34;;;;;;;7.28;4.60;;;;;;;16.75;82.26;101412.41;3533052;40;20050;-63
2023/07/14 05:21:06;;;;;;;7.72;4.50;;;;;;;16.76;83.84;101401.47;3531813;40;20128;-63
2023/07/14 05:23:33;;;;;;;9.60;4.75;;;;;;;16.79;83.15;101403.94;3530877;40;20285;-64
2023/07/14 05:25:59;;;;;;;6.25;4.28;;;;;;;16.85;82.36;101408.03;3528814;40;20354;-64
2023/07/14 05:28:25;;;;;;;6.22;4.55;;;;;;;16.91;83.48;101402.97;3531429;40;20054;-64
2023/07/14 05:30:52;;;;;;;8.35;4.97;;;;;;;16.99;83.10;101412.34;3530944;40;20062;-64
2023/07/14 05:33:22;;;;;;;8.52;4.75;;;;;;;17.08;82.25;101408.91;3529966;40;20081;-64
2023/07/14 05:35:48;;;;;;;7.72;4.53;;;;;;;16.73;81.92;101343.78;3531654;40;20132;-64
2023/07/14 05:38:16;;;;;;;6.35;4.63;;;;;;;17.17;80.94;101405.44;3524435;40;20058;-64
2023/07/14 05:40:41;;;;;;;7.40;4.70;;;;;;;17.25;80.99;101408.38;3532209;40;20273;-64
2023/07/14 05:43:07;;;;;;;7.63;4.40;;;;;;;17.30;81.18;101400.75;3532380;40;20073;-63
2023/07/14 05:45:33;;;;;;;5.68;4.22;;;;;;;17.38;79.40;101405.56;3535609;40;20392;-64
2023/07/14 05:47:59;;;;;;;8.10;4.22;;;;;;;17.40;79.08;101415.31;3533784;40;20066;-64
2023/07/14 05:50:25;;;;;;;5.25;3.85;;;;;;;17.40;78.71;101404.44;3524169;40;20086;-64
2023/07/14 05:52:51;;;;;;;8.63;4.35;;;;;;;17.45;78.25;101405.94;3531681;40;20063;-62
2023/07/14 05:55:16;;;;;;;5.85;4.18;;;;;;;17.48;78.77;101411.13;3531474;40;20058;-62
2023/07/14 05:57:43;;;;;;;5.25;4.03;;;;;;;17.51;77.21;101406.28;3534617;40;20500;-62
2023/07/14 06:00:16;;;;;;;5.30;4.43;;;;;;;17.39;77.95;101386.41;3531582;40;20061;-62
2023/07/14 06:02:45;;;;;;;6.60;4.25;;;;;;;17.58;77.12;101406.66;3529578;40;20050;-63
2023/07/14 06:05:12;;;;;;;7.68;4.25;;;;;;;17.60;75.65;101405.53;3531466;40;20125;-62
2023/07/14 06:07:40;;;;;;;7.65;4.43;;;;;;;17.49;76.49;101381.09;3530989;40;20062;-62
2023/07/14 06:10:08;;;;;;;6.90;4.50;;;;;;;17.69;75.38;101409.34;3525335;40;20325;-63
2023/07/14 06:12:34;;;;;;;5.82;4.45;;;;;;;17.73;77.10;101415.38;3531490;40;20066;-63
2023/07/14 06:15:00;;;;;;;4.95;4.25;;;;;;;17.28;76.19;101329.34;3530528;40;20522;-63
2023/07/14 06:17:27;;;;;;;7.95;4.20;;;;;;;17.77;77.06;101408.75;3528323;40;20532;-63
2023/07/14 06:19:52;;;;;;;6.80;4.30;;;;;;;17.81;75.78;101405.63;3530000;40;20102;-63
2023/07/14 06:22:20;;;;;;;5.18;4.13;;;;;;;17.85;76.77;101398.94;3528843;40;20909;-63
2023/07/14 06:24:48;;;;;;;5.88;3.97;;;;;;;17.94;76.25;101401.91;3533219;40;20061;-62
2023/07/14 06:27:15;;;;;;;5.47;3.88;;;;;;;17.99;76.10;101399.66;3533021;40;20050;-63
2023/07/14 06:29:41;;;;;;;6.00;3.85;;;;;;;18.09;74.90;101408.78;3535978;40;20493;-63
2023/07/14 06:32:07;;;;;;;5.85;4.20;;;;;;;18.11;74.27;101404.09;3528768;40;20069;-62
2023/07/14 06:34:33;;;;;;;5.93;4.15;;;;;;;18.15;74.70;101402.81;3531728;40;20070;-62
2023/07/14 06:36:59;;;;;;;5.30;3.95;;;;;;;18.22;73.43;101409.47;3531059;40;20389;-63
2023/07/14 06:39:25;;;;;;;5.68;3.85;;;;;;;18.29;72.60;101394.31;3528923;40;20120;-62
2023/07/14 06:41:51;;;;;;;5.15;3.50;;;;;;;18.42;73.16;101401.44;3521148;40;20865;-63
2023/07/14 06:44:17;;;;;;;5.57;3.80;;;;;;;18.48;72.02;101395.47;3533559;40;20061;-63
2023/07/14 06:46:43;;;;;;;5.70;3.70;;;;;;;18.55;71.76;101400.28;3522949;40;20079;-63
2023/07/14 06:49:10;;;;;;;5.53;3.70;;;;;;;18.44;71.96;101373.09;3529298;40;20077;-63
2023/07/14 06:51:36;;;;;;;5.53;3.70;;;;;;;18.69;71.55;101393.63;3528881;40;20094;-63
2023/07/14 06:54:01;;;;;;;4.72;3.17;;;;;;;18.73;71.84;101378.75;3529389;40;20109;-62
2023/07/14 06:56:27;;;;;;;6.35;3.88;;;;;;;19.09;71.74;101398.31;3523195;40;20415;-63
2023/07/14 06:58:53;;;;;;;4.32;3.10;;;;;;;19.19;69.43;101393.78;3529069;40;20058;-63
2023/07/14 07:01:21;;;;;;;5.97;3.30;;;;;;;19.26;68.20;101388.66;3530307;40;20090;-63
2023/07/14 07:03:47;;;;;;;5.55;3.03;;;;;;;19.27;67.37;101390.34;3532438;40;20049;-63
2023/07/14 07:06:15;;;;;;;4.07;3.10;;;;;;;19.17;65.82;101376.69;3532054;40;20066;-63
2023/07/14 07:08:42;;;;;;;5.38;3.30;;;;;;;19.35;67.02;101384.25;3529597;40;20058;-63
2023/07/14 07:11:10;;;;;;;4.10;3.03;;;;;;;19.37;67.73;101388.53;3529339;40;20333;-63
2023/07/14 07:13:36;;;;;;;5.95;3.00;;;;;;;19.40;67.35;101387.38;3534315;40;20061;-64
2023/07/14 07:16:02;;;;;;;7.80;3.00;;;;;;;19.42;66.97;101379.94;3530132;40;20278;-64
2023/07/14 07:18:28;;;;;;;4.07;2.75;;;;;;;19.42;65.64;101374.50;3530589;40;20092;-64
2023/07/14 07:20:55;;;;;;;4.80;2.60;;;;;;;19.47;65.25;101377.66;3527441;40;20065;-64
2023/07/14 07:23:21;;;;;;;4.03;2.90;;;;;;;19.52;64.17;101375.38;3531288;40;20046;-64
2023/07/14 07:25:50;;;;;;;7.25;2.78;;;;;;;19.57;65.55;101366.75;3529152;40;20381;-64
2023/07/14 07:28:18;;;;;;;6.30;2.90;;;;;;;19.43;65.59;101338.03;3530134;40;20058;-64
2023/07/14 07:30:45;;;;;;;5.40;2.58;;;;;;;19.62;64.78;101362.63;3533021;40;20049;-62
2023/07/14 07:33:11;;;;;;;3.70;2.70;;;;;;;19.59;63.22;101365.63;3528370;40;20058;-63
2023/07/14 07:35:39;;;;;;;2.88;2.42;;;;;;;19.51;62.19;101378.25;3530681;40;20143;-63
2023/07/14 07:38:05;;;;;;;3.60;2.60;;;;;;;19.53;64.66;101365.31;3529759;40;20066;-63
2023/07/14 07:40:31;;;;;;;3.75;2.60;;;;;;;19.57;63.88;101356.75;3530569;40;20062;-63
2023/07/14 07:42:57;;;;;;;3.22;2.22;;;;;;;19.69;64.06;101360.22;3527647;40;20051;-62
2023/07/14 07:45:23;;;;;;;5.70;2.70;;;;;;;19.79;63.14;101357.50;3530232;40;20464;-63
2023/07/14 07:47:49;;;;;;;3.70;2.20;;;;;;;19.90;62.73;101368.31;3532094;40;20068;-62
2023/07/14 07:50:15;;;;;;;4.82;2.60;;;;;;;19.93;62.08;101357.97;3531223;40;20353;-63
2023/07/14 07:52:41;;;;;;;4.15;2.45;;;;;;;20.00;61.87;101360.13;3526511;40;20076;-62
2023/07/14 07:55:07;;;;;;;3.30;2.25;;;;;;;19.97;60.18;101357.69;3529809;40;20077;-63
2023/07/14 07:57:32;;;;;;;2.72;2.10;;;;;;;20.03;60.71;101368.03;3529951;40;20101;-63
2023/07/14 07:59:59;;;;;;;5.65;2.50;;;;;;;20.06;61.02;101357.69;3528934;40;20064;-63
2023/07/14 08:02:25;;;;;;;3.97;2.28;;;;;;;20.08;60.54;101352.09;3530483;40;20584;-63
2023/07/14 08:04:51;;;;;;;4.28;2.53;;;;;;;20.04;60.62;101343.28;3531212;40;20140;-63
2023/07/14 08:07:17;;;;;;;4.25;2.38;;;;;;;20.02;59.17;101349.94;3533291;40;20331;-63
2023/07/14 08:09:43;;;;;;;3.25;2.13;;;;;;;20.02;60.37;101345.31;3532370;40;20089;-63
2023/07/14 08:12:10;;;;;;;2.97;2.15;;;;;;;19.88;59.91;101315.72;3531333;40;20070;-63
2023/07/14 08:14:50;;;;;;;4.40;2.20;;;;;;;;;;3532123;40;20056;-63
2023/07/14 08:17:16;;;;;;;3.90;2.20;;;;;;;19.94;58.47;101346.03;3530758;40;20066;-63
2023/07/14 08:19:42;;;;;;;5.45;2.20;;;;;;;19.96;59.83;101345.91;3531082;40;20373;-63
2023/07/14 08:22:07;;;;;;;4.38;2.47;;;;;;;20.04;59.61;101343.28;3530365;40;20062;-64
2023/07/14 08:24:33;;;;;;;2.92;2.08;;;;;;;20.14;59.29;101340.59;3525497;40;20066;-63
2023/07/14 08:26:59;;;;;;;4.00;2.30;;;;;;;20.25;58.92;101340.44;3529323;40;20065;-64
2023/07/14 08:29:24;;;;;;;3.15;2.45;;;;;;;20.27;57.17;101343.03;3531600;40;20066;-63
2023/07/14 08:31:50;;;;;;;3.08;2.50;;;;;;;20.28;57.68;101340.13;3523098;40;20073;-63
2023/07/14 08:34:16;;;;;;;3.08;1.88;;;;;;;20.34;58.04;101344.16;3531058;40;20058;-64
2023/07/14 08:36:42;;;;;;;2.47;2.20;;;;;;;20.40;57.34;101343.56;3532981;40;20061;-64
2023/07/14 08:39:08;;;;;;;3.78;2.20;;;;;;;20.41;56.71;101350.75;3530673;40;20289;-64
2023/07/14 08:41:43;;;;;;;3.17;2.10;;;;;;;20.59;57.94;101353.63;3531553;40;20104;-63
2023/07/14 08:44:24;;;;;;;4.60;2.10;;;;;;;20.82;58.17;101345.94;3526016;40;20377;-63
2023/07/14 08:47:18;;;;;;;2.80;1.85;;;;;;;21.02;55.80;101344.84;3531632;40;20159;-64
2023/07/14 08:49:55;;;;;;;3.90;2.15;;;;;;;21.24;55.84;101343.59;3534142;40;20066;-64
2023/07/14 08:52:34;;;;;;;4.30;2.17;;;;;;;21.59;55.37;101341.13;3531337;40;20426;-64
2023/07/14 08:55:09;;;;;;;3.50;2.03;;;;;;;21.87;53.87;101339.22;3528708;40;20081;-64
2023/07/14 08:57:48;;;;;;;3.05;2.03;;;;;;;22.07;52.95;101335.28;3533319;40;20070;-63
2023/07/14 09:00:43;;;;;;;4.82;2.33;;;;;;;22.30;53.39;101334.84;3529826;40;20062;-64
2023/07/14 09:03:11;;;;;;;4.55;2.20;;;;;;;22.50;52.28;101319.91;3533280;40;20103;-63
2023/07/14 09:05:48;;;;;;;4.05;2.30;;;;;;;22.72;52.13;101313.03;3533063;40;20272;-65
2023/07/14 09:08:14;;;;;;;3.75;2.20;;;;;;;22.82;52.15;101308.28;3530596;40;20061;-63
2023/07/14 09:11:24;;;;;;;2.38;1.75;;;;;;;23.16;52.21;101321.19;3530155;40;20082;-63
2023/07/14 09:14:19;;;;;;;4.20;2.17;;;;;;;23.28;50.32;101318.97;3526074;40;20360;-63
2023/07/14 09:17:19;;;;;;;3.60;1.90;;;;;;;23.54;50.47;101299.69;3526779;40;20065;-63
2023/07/14 09:20:06;;;;;;;4.90;2.00;;;;;;;23.84;50.14;101301.81;3530002;40;20394;-64
2023/07/14 09:23:08;;;;;;;3.40;1.88;;;;;;;23.90;49.15;101318.66;3532004;40;20066;-63
2023/07/14 09:25:49;;;;;;;4.50;2.15;;;;;;;23.70;48.25;101308.00;3530310;40;20508;-64
2023/07/14 09:28:48;;;;;;;3.55;2.17;;;;;;;23.60;48.45;101299.03;3529757;40;20413;-64
2023/07/14 09:31:54;;;;;;;3.55;2.03;;;;;;;23.75;50.11;101302.84;3523603;40;20062;-63
2023/07/14 09:34:40;;;;;;;3.92;1.98;;;;;;;23.97;49.11;101289.47;3534402;40;20054;-63
2023/07/14 09:37:26;;;;;;;2.38;1.83;;;;;;;24.30;49.46;101288.44;3532973;40;20072;-65
2023/07/14 09:40:15;;;;;;;3.53;2.15;;;;;;;24.47;48.00;101291.19;3530150;40;20403;-63
2023/07/14 09:42:42;;;;;;;3.67;1.90;;;;;;;24.60;47.88;101286.00;3532920;40;20070;-63
2023/07/14 09:45:19;;;;;;;3.08;2.50;;;;;;;24.69;46.76;101282.22;3534497;40;20058;-64
2023/07/14 09:47:52;;;;;;;3.85;2.20;;;;;;;24.79;45.84;101274.59;3534479;40;20069;-63
2023/07/14 09:50:21;;;;;;;3.22;2.10;;;;;;;24.88;47.51;101274.59;3530526;40;20532;-63
2023/07/14 09:53:01;;;;;;;4.20;2.33;;;;;;;25.13;46.84;101276.25;3520479;40;20059;-64
2023/07/14 09:55:44;;;;;;;2.92;2.13;;;;;;;25.17;45.55;101263.81;3533178;40;20416;-63
2023/07/14 09:58:15;;;;;;;3.92;1.98;;;;;;;24.98;46.82;101250.47;3535681;40;20053;-62
2023/07/14 10:00:42;;;;;;;3.85;2.17;;;;;;;24.97;45.31;101273.53;3528796;40;20047;-64
2023/07/14 10:03:16;;;;;;;3.40;1.90;;;;;;;24.84;46.58;101270.50;3533777;40;20140;-64
2023/07/14 10:05:47;;;;;;;4.95;2.30;;;;;;;24.70;46.55;101272.91;3534442;40;20068;-64
2023/07/14 10:09:01;;;;;;;3.00;2.00;;;;;;;24.55;46.97;101255.47;3530645;40;20055;-63
2023/07/14 10:11:44;;;;;;;3.65;2.08;;;;;;;24.53;47.27;101250.13;3533542;40;20061;-63
2023/07/14 10:14:36;;;;;;;4.82;2.17;;;;;;;24.47;47.69;101245.31;3531064;40;20054;-62
2023/07/14 10:17:04;;;;;;;2.03;1.80;;;;;;;24.33;48.02;101216.66;3535721;40;20121;-63
2023/07/14 10:19:44;;;;;;;2.35;1.90;;;;;;;24.36;48.15;101218.19;3528997;40;20070;-64
2023/07/14 10:22:17;;;;;;;3.90;1.83;;;;;;;24.61;47.85;101241.00;3530533;40;20094;-63
2023/07/14 10:24:55;;;;;;;2.60;2.10;;;;;;;24.80;45.35;101228.72;3528775;40;20069;-64
2023/07/14 10:27:30;;;;;;;4.53;2.00;;;;;;;24.98;45.71;101222.97;3529480;40;20070;-64
2023/07/14 10:30:14;;;;;;;2.88;1.63;;;;;;;25.04;46.24;101214.00;3530989;40;20066;-64
2023/07/14 10:33:00;;;;;;;2.35;1.83;;;;;;;25.25;45.29;101216.16;3530248;40;20055;-64
2023/07/14 10:35:35;;;;;;;2.28;1.90;;;;;;;25.38;44.44;101201.81;3530142;40;20091;-64
2023/07/14 10:38:23;;;;;;;2.33;1.60;;;;;;;25.55;45.12;101200.63;3532787;40;20381;-64
2023/07/14 10:41:03;;;;;;;2.97;1.73;;;;;;;25.82;43.31;101203.91;3521536;40;20140;-64
2023/07/14 10:43:59;;;;;;;3.78;1.88;;;;;;;26.15;43.82;101197.00;3530014;40;20797;-64
2023/07/14 10:46:36;;;;;;;2.70;1.95;;;;;;;25.96;42.71;101131.44;3536984;40;20062;-63
2023/07/14 10:49:15;;;;;;;2.53;1.88;;;;;;;26.39;40.92;101184.88;3532354;40;20376;-64
2023/07/14 10:51:53;;;;;;;3.28;1.85;;;;;;;26.21;42.44;101167.00;3532164;40;20066;-63
2023/07/14 10:54:48;;;;;;;2.53;1.80;;;;;;;26.15;42.11;101185.13;3529333;40;20065;-63
2023/07/14 10:57:41;;;;;;;2.80;1.80;;;;;;;25.91;41.58;101184.34;3532061;40;20085;-62
2023/07/14 11:00:32;;;;;;;3.85;1.67;;;;;;;25.67;42.77;101182.63;3528400;40;20058;-63
2023/07/14 11:03:14;;;;;;;4.70;1.73;;;;;;;25.45;43.38;101180.75;3528968;40;20066;-62
2023/07/14 11:05:53;;;;;;;2.30;1.92;;;;;;;25.29;43.22;101186.38;3521136;40;20064;-63
2023/07/14 11:08:19;;;;;;;2.38;1.50;;;;;;;25.26;43.14;101179.34;3529018;40;20094;-63
2023/07/14 11:10:47;;;;;;;2.13;1.73;;;;;;;25.31;43.77;101167.78;3533383;40;20068;-64
2023/07/14 11:13:31;;;;;;;5.22;2.10;;;;;;;25.35;44.03;101164.47;3530213;40;20065;-62
2023/07/14 11:16:12;;;;;;;2.78;2.00;;;;;;;25.43;43.48;101136.88;3522438;40;20156;-63
2023/07/14 11:19:14;;;;;;;2.78;1.80;;;;;;;25.56;43.65;101130.75;3521289;40;20094;-63
2023/07/14 11:22:33;;;;;;;3.67;2.10;;;;;;;25.52;43.64;101129.41;3529882;40;20050;-62
2023/07/14 11:25:50;;;;;;;2.60;2.03;;;;;;;25.42;43.89;101128.81;3526842;40;20763;-63
2023/07/14 11:28:44;;;;;;;3.55;1.63;;;;;;;25.52;46.00;101120.31;3528787;40;20366;-63
2023/07/14 11:31:40;;;;;;;3.95;1.90;;;;;;;26.03;43.16;101137.91;3530205;40;20294;-63
2023/07/14 11:34:17;;;;;;;5.38;2.10;;;;;;;26.12;41.69;101131.25;3529047;40;20440;-63
2023/07/14 11:37:00;;;;;;;2.78;1.83;;;;;;;25.96;44.50;101103.88;3528279;40;20061;-64
2023/07/14 11:39:44;;;;;;;2.58;1.80;;;;;;;26.33;43.08;101118.63;3526817;40;20050;-65
2023/07/14 11:42:20;;;;;;;2.25;1.80;;;;;;;26.58;43.00;101125.56;3530585;40;20062;-63
2023/07/14 11:44:50;;;;;;;2.65;2.00;;;;;;;26.73;41.89;101116.41;3533420;40;20295;-63
2023/07/14 11:47:29;;;;;;;3.47;1.90;;;;;;;26.96;41.06;101111.59;3530083;40;20070;-64
2023/07/14 11:49:55;;;;;;;3.00;1.90;;;;;;;27.22;41.00;101111.03;3532104;40;20458;-63